createdAt,value
2022-11-16T00:01:31.070Z,7.99
2022-11-16T00:04:35.172Z,7.94
2022-11-16T00:07:39.296Z,7.83
2022-11-16T00:10:43.558Z,7.84
2022-11-16T00:13:47.615Z,7.72
2022-11-16T00:16:51.810Z,7.72
2022-11-16T00:19:55.822Z,7.74
2022-11-16T00:23:00.085Z,7.74
2022-11-16T00:26:09.508Z,7.59
2022-11-16T00:29:19.531Z,7.55
2022-11-16T00:32:23.587Z,7.40
2022-11-16T00:35:28.092Z,7.29
2022-11-16T00:38:32.808Z,7.30
2022-11-16T00:41:37.115Z,7.28
2022-11-16T00:44:41.041Z,7.21
2022-11-16T00:47:44.965Z,7.20
2022-11-16T00:50:49.208Z,7.22
2022-11-16T00:53:53.322Z,7.24
2022-11-16T00:56:57.522Z,7.28
2022-11-16T01:00:02.194Z,7.15
2022-11-16T01:03:06.875Z,7.15
2022-11-16T01:06:12.982Z,7.15
2022-11-16T01:09:16.936Z,7.22
2022-11-16T01:12:21.021Z,7.29
2022-11-16T01:15:26.917Z,7.22
2022-11-16T01:18:31.039Z,7.21
2022-11-16T01:21:35.474Z,7.27
2022-11-16T01:24:39.763Z,7.26
2022-11-16T01:27:44.442Z,7.24
2022-11-16T01:30:48.893Z,7.16
2022-11-16T01:33:54.711Z,7.11
2022-11-16T01:36:58.568Z,7.02
2022-11-16T01:40:02.800Z,6.94
2022-11-16T01:43:20.324Z,6.86
2022-11-16T01:46:25.731Z,6.85
2022-11-16T01:49:32.816Z,6.89
2022-11-16T01:52:41.742Z,6.97
2022-11-16T01:55:47.483Z,6.97
2022-11-16T01:58:52.116Z,7.05
2022-11-16T02:01:56.848Z,6.98
2022-11-16T02:05:01.999Z,6.97
2022-11-16T02:08:32.909Z,6.97
2022-11-16T02:11:56.167Z,6.96
2022-11-16T02:15:24.910Z,7.02
2022-11-16T02:18:54.968Z,7.02
2022-11-16T02:22:14.057Z,6.89
2022-11-16T02:25:52.218Z,6.90
2022-11-16T02:29:19.614Z,6.86
2022-11-16T02:32:33.601Z,6.75
2022-11-16T02:35:56.354Z,6.68
2022-11-16T02:39:13.359Z,6.71
2022-11-16T02:42:23.022Z,6.64
2022-11-16T02:45:32.330Z,6.66
2022-11-16T02:48:42.945Z,6.61
2022-11-16T02:51:47.705Z,6.59
2022-11-16T02:54:51.551Z,6.55
2022-11-16T02:57:59.128Z,6.57
2022-11-16T03:01:08.724Z,6.62
2022-11-16T03:04:26.716Z,6.54
2022-11-16T03:07:37.284Z,6.47
2022-11-16T03:11:03.389Z,6.49
2022-11-16T03:14:13.903Z,6.53
2022-11-16T03:17:25.807Z,6.33
2022-11-16T03:20:34.284Z,6.40
2022-11-16T03:23:38.334Z,6.35
2022-11-16T03:26:56.455Z,6.45
2022-11-16T03:30:11.118Z,6.50
2022-11-16T03:33:30.171Z,6.41
2022-11-16T03:36:38.633Z,6.33
2022-11-16T03:39:44.158Z,6.39
2022-11-16T03:42:52.083Z,6.31
2022-11-16T03:45:56.810Z,6.31
2022-11-16T03:49:01.221Z,6.14
2022-11-16T03:52:05.957Z,6.24
2022-11-16T03:55:09.787Z,6.17
2022-11-16T03:58:13.922Z,6.01
2022-11-16T04:01:18.126Z,6.07
2022-11-16T04:04:40.951Z,6.21
2022-11-16T04:08:03.869Z,6.31
2022-11-16T04:11:34.952Z,6.22
2022-11-16T04:14:57.873Z,6.21
2022-11-16T04:18:20.555Z,6.21
2022-11-16T04:21:49.647Z,6.18
2022-11-16T04:24:59.656Z,6.12
2022-11-16T04:28:13.401Z,6.09
2022-11-16T04:31:35.778Z,6.19
2022-11-16T04:34:58.632Z,5.99
2022-11-16T04:38:02.610Z,6.04
2022-11-16T04:41:26.945Z,6.04
2022-11-16T04:44:53.262Z,6.05
2022-11-16T04:47:57.384Z,6.14
2022-11-16T04:51:01.284Z,6.10
2022-11-16T04:54:05.285Z,6.18
2022-11-16T04:57:09.192Z,6.16
2022-11-16T05:00:13.952Z,6.12
2022-11-16T05:03:17.827Z,6.06
2022-11-16T05:06:21.910Z,6.04
2022-11-16T05:09:26.150Z,5.98
2022-11-16T05:12:30.638Z,6.02
2022-11-16T05:15:34.406Z,5.97
2022-11-16T05:18:38.091Z,6.07
2022-11-16T05:21:42.048Z,6.03
2022-11-16T05:24:45.939Z,6.02
2022-11-16T05:27:49.759Z,6.11
2022-11-16T05:30:53.777Z,6.08
2022-11-16T05:33:57.895Z,6.19
2022-11-16T05:37:02.617Z,6.24
2022-11-16T05:40:07.503Z,6.12
2022-11-16T05:43:11.409Z,6.03
2022-11-16T05:46:15.401Z,5.96
2022-11-16T05:49:19.392Z,6.02
2022-11-16T05:52:23.613Z,5.96
2022-11-16T05:55:27.775Z,6.02
2022-11-16T05:58:32.096Z,6.01
2022-11-16T06:01:36.313Z,6.03
2022-11-16T06:04:40.381Z,6.08
2022-11-16T06:07:44.440Z,6.13
2022-11-16T06:10:48.312Z,6.00
2022-11-16T06:13:52.140Z,6.05
2022-11-16T06:16:56.481Z,6.12
2022-11-16T06:20:00.757Z,6.08
2022-11-16T06:23:05.212Z,6.12
2022-11-16T06:26:09.547Z,6.26
2022-11-16T06:29:14.860Z,6.24
2022-11-16T06:32:19.024Z,6.18
2022-11-16T06:35:23.280Z,6.27
2022-11-16T06:38:27.811Z,6.28
2022-11-16T06:41:32.807Z,6.33
2022-11-16T06:44:36.873Z,6.25
2022-11-16T06:47:41.136Z,6.28
2022-11-16T06:50:47.789Z,6.28
2022-11-16T06:53:52.234Z,6.29
2022-11-16T06:56:56.587Z,6.21
2022-11-16T07:00:00.297Z,6.29
2022-11-16T07:03:04.658Z,6.26
2022-11-16T07:06:11.296Z,6.35
2022-11-16T07:09:15.608Z,6.34
2022-11-16T07:12:19.830Z,6.45
2022-11-16T07:15:23.950Z,6.45
2022-11-16T07:18:28.273Z,6.56
2022-11-16T07:21:32.478Z,6.53
2022-11-16T07:24:36.691Z,6.53
2022-11-16T07:27:40.672Z,6.55
2022-11-16T07:30:44.862Z,6.55
2022-11-16T07:33:48.900Z,6.60
2022-11-16T07:36:52.715Z,6.55
2022-11-16T07:39:56.732Z,6.63
2022-11-16T07:43:00.811Z,6.70
2022-11-16T07:49:39.874Z,6.72
2022-11-16T07:52:46.494Z,6.72
2022-11-16T07:55:54.210Z,6.79
2022-11-16T07:58:59.093Z,6.82
2022-11-16T08:02:03.064Z,6.87
2022-11-16T08:05:07.527Z,7.05
2022-11-16T08:08:12.113Z,7.01
2022-11-16T08:11:16.493Z,7.16
2022-11-16T08:14:20.944Z,7.20
2022-11-16T08:17:25.082Z,7.34
2022-11-16T08:20:30.161Z,7.15
2022-11-16T08:23:34.370Z,7.19
2022-11-16T08:26:38.471Z,7.35
2022-11-16T08:29:42.607Z,7.38
2022-11-16T08:32:46.718Z,7.38
2022-11-16T08:35:51.455Z,7.23
2022-11-16T08:38:55.415Z,7.31
2022-11-16T08:41:59.640Z,7.26
2022-11-16T08:45:03.927Z,7.40
2022-11-16T08:48:08.199Z,7.37
2022-11-16T08:51:19.272Z,7.49
2022-11-16T08:54:24.055Z,7.54
2022-11-16T08:57:28.297Z,7.49
2022-11-16T09:00:32.273Z,7.66
2022-11-16T09:03:37.979Z,7.37
2022-11-16T09:06:42.026Z,7.52
2022-11-16T09:09:45.970Z,7.61
2022-11-16T09:12:50.263Z,7.69
2022-11-16T09:16:00.918Z,7.71
2022-11-16T09:19:04.638Z,7.74
2022-11-16T09:22:08.640Z,7.69
2022-11-16T09:25:12.586Z,7.68
2022-11-16T09:28:21.050Z,7.69
2022-11-16T09:31:29.698Z,7.73
2022-11-16T09:34:34.624Z,7.91
2022-11-16T09:37:39.111Z,7.73
2022-11-16T09:40:46.177Z,7.80
2022-11-16T09:44:40.599Z,7.87
2022-11-16T09:47:59.301Z,7.87
2022-11-16T09:51:08.207Z,7.85
2022-11-16T09:54:16.843Z,7.86
2022-11-16T09:57:28.256Z,7.95
2022-11-16T10:00:33.127Z,8.02
2022-11-16T10:03:42.749Z,8.14
2022-11-16T10:06:56.836Z,8.17
2022-11-16T10:10:01.015Z,8.18
2022-11-16T10:13:36.838Z,8.00
2022-11-16T10:16:47.958Z,8.03
2022-11-16T10:20:19.876Z,8.09
2022-11-16T10:23:38.749Z,8.17
2022-11-16T10:26:48.173Z,8.27
2022-11-16T10:30:01.078Z,8.21
2022-11-16T10:33:11.401Z,8.17
2022-11-16T10:36:16.503Z,8.24
2022-11-16T10:39:21.262Z,8.25
2022-11-16T10:42:37.041Z,8.37
2022-11-16T10:46:20.212Z,8.26
2022-11-16T10:49:47.907Z,8.35
2022-11-16T10:52:51.875Z,8.48
2022-11-16T10:56:32.406Z,8.37
2022-11-16T10:59:42.951Z,8.31
2022-11-16T11:02:48.545Z,8.39
2022-11-16T11:05:53.574Z,8.34
2022-11-16T11:09:22.549Z,8.32
2022-11-16T11:12:39.074Z,8.27
2022-11-16T11:15:44.742Z,8.34
2022-11-16T11:18:48.607Z,8.36
2022-11-16T11:21:59.763Z,8.36
2022-11-16T11:25:14.624Z,8.36
2022-11-16T11:28:28.518Z,8.32
2022-11-16T11:31:38.840Z,8.44
2022-11-16T11:34:47.213Z,8.40
2022-11-16T11:37:54.431Z,8.35
2022-11-16T11:41:05.050Z,8.39
2022-11-16T11:44:20.395Z,8.34
2022-11-16T11:48:17.320Z,8.31
2022-11-16T11:51:27.564Z,8.48
2022-11-16T11:54:52.771Z,8.45
2022-11-16T11:57:59.389Z,8.49
2022-11-16T12:01:44.260Z,8.54
2022-11-16T12:05:00.318Z,8.45
2022-11-16T12:08:18.608Z,8.47
2022-11-16T12:11:34.309Z,8.39
2022-11-16T12:15:00.358Z,8.29
2022-11-16T12:18:04.317Z,8.34
2022-11-16T12:21:19.513Z,8.39
2022-11-16T12:24:45.405Z,8.36
2022-11-16T12:28:37.079Z,8.21
2022-11-16T12:31:51.356Z,8.18
2022-11-16T12:35:01.968Z,8.30
2022-11-16T12:38:41.425Z,8.33
2022-11-16T12:42:23.645Z,8.30
2022-11-16T12:45:44.954Z,8.30
2022-11-16T12:49:02.393Z,8.33
2022-11-16T12:52:34.440Z,8.24
2022-11-16T12:56:04.608Z,8.42
2022-11-16T12:59:31.497Z,8.29
2022-11-16T13:03:00.685Z,8.35
2022-11-16T13:06:10.570Z,8.27
2022-11-16T13:09:18.548Z,8.31
2022-11-16T13:12:23.528Z,8.35
2022-11-16T13:15:37.638Z,8.56
2022-11-16T13:18:42.861Z,8.45
2022-11-16T13:22:03.437Z,8.48
2022-11-16T13:25:19.306Z,8.46
2022-11-16T13:28:36.858Z,8.39
2022-11-16T13:32:12.567Z,8.35
2022-11-16T13:35:18.383Z,8.30
2022-11-16T13:38:53.848Z,8.30
2022-11-16T13:42:13.098Z,8.24
2022-11-16T13:45:20.679Z,8.24
2022-11-16T13:48:33.729Z,8.25
2022-11-16T13:51:37.799Z,8.23
2022-11-16T13:54:50.277Z,8.20
2022-11-16T13:57:57.188Z,8.33
2022-11-16T14:01:10.690Z,8.27
2022-11-16T14:04:55.911Z,8.11
2022-11-16T14:08:19.934Z,8.13
2022-11-16T14:11:34.477Z,8.16
2022-11-16T14:15:15.192Z,8.07
2022-11-16T14:18:36.878Z,8.00
2022-11-16T14:21:55.323Z,8.01
2022-11-16T14:25:29.585Z,8.10
2022-11-16T14:28:59.281Z,8.14
2022-11-16T14:32:04.959Z,8.09
2022-11-16T14:35:31.044Z,8.03
2022-11-16T14:38:40.815Z,8.04
2022-11-16T14:41:46.296Z,8.09
2022-11-16T14:44:50.956Z,8.07
2022-11-16T14:48:16.981Z,8.04
2022-11-16T14:51:25.457Z,7.98
2022-11-16T14:54:38.241Z,7.97
2022-11-16T14:57:42.597Z,7.87
2022-11-16T15:01:04.793Z,7.83
2022-11-16T15:04:10.059Z,7.89
2022-11-16T15:07:15.359Z,7.89
2022-11-16T15:10:25.070Z,7.76
2022-11-16T15:13:29.111Z,7.85
2022-11-16T15:16:32.758Z,7.83
2022-11-16T15:19:36.846Z,7.90
2022-11-16T15:22:43.757Z,7.86
2022-11-16T15:25:56.305Z,7.83
2022-11-16T15:29:00.302Z,7.84
2022-11-16T15:32:06.781Z,7.73
2022-11-16T15:35:23.738Z,7.76
2022-11-16T15:38:30.679Z,7.80
2022-11-16T15:41:37.540Z,7.84
2022-11-16T15:44:43.162Z,7.77
2022-11-16T15:47:47.694Z,7.83
2022-11-16T15:51:01.463Z,7.70
2022-11-16T15:54:51.016Z,7.58
2022-11-16T15:58:07.507Z,7.54
2022-11-16T16:01:13.101Z,7.57
2022-11-16T16:04:18.472Z,7.51
2022-11-16T16:07:39.614Z,7.61
2022-11-16T16:10:44.128Z,7.59
2022-11-16T16:14:00.685Z,7.61
2022-11-16T16:17:04.407Z,7.62
2022-11-16T16:20:18.246Z,7.66
2022-11-16T16:23:25.015Z,7.56
2022-11-16T16:26:28.940Z,7.57
2022-11-16T16:29:33.199Z,7.66
2022-11-16T16:32:37.914Z,7.69
2022-11-16T16:35:42.261Z,7.64
2022-11-16T16:38:46.369Z,7.57
2022-11-16T16:41:50.638Z,7.61
2022-11-16T16:44:54.722Z,7.58
2022-11-16T16:47:58.738Z,7.55
2022-11-16T16:51:02.868Z,7.54
2022-11-16T16:54:07.244Z,7.53
2022-11-16T16:57:18.561Z,7.56
2022-11-16T17:00:23.449Z,7.57
2022-11-16T17:03:27.751Z,7.59
2022-11-16T17:06:32.187Z,7.56
2022-11-16T17:09:35.991Z,7.56
2022-11-16T17:12:40.474Z,7.50
2022-11-16T17:15:44.511Z,7.39
2022-11-16T17:18:53.801Z,7.37
2022-11-16T17:21:58.300Z,7.50
2022-11-16T17:25:02.146Z,7.44
2022-11-16T17:28:05.922Z,7.43
2022-11-16T17:31:11.539Z,7.43
2022-11-16T17:34:15.516Z,7.45
2022-11-16T17:37:19.751Z,7.44
2022-11-16T17:40:23.883Z,7.41
2022-11-16T17:43:27.803Z,7.56
2022-11-16T17:46:32.059Z,7.47
2022-11-16T17:49:36.212Z,7.40
2022-11-16T17:52:41.635Z,7.32
2022-11-16T17:55:45.291Z,7.33
2022-11-16T17:58:52.517Z,7.36
2022-11-16T18:01:57.866Z,7.40
2022-11-16T18:05:02.232Z,7.51
2022-11-16T18:08:08.130Z,7.43
2022-11-16T18:11:22.662Z,7.40
2022-11-16T18:14:26.787Z,7.35
2022-11-16T18:17:31.230Z,7.31
2022-11-16T18:20:37.054Z,7.37
2022-11-16T18:23:41.655Z,7.41
2022-11-16T18:26:45.599Z,7.33
2022-11-16T18:29:49.293Z,7.36
2022-11-16T18:32:53.554Z,7.40
2022-11-16T18:35:57.936Z,7.28
2022-11-16T18:39:04.679Z,7.38
2022-11-16T18:42:11.717Z,7.32
2022-11-16T18:45:15.820Z,7.43
2022-11-16T18:48:20.079Z,7.37
2022-11-16T18:51:26.212Z,7.29
2022-11-16T18:54:30.145Z,7.30
2022-11-16T18:57:34.325Z,7.38
2022-11-16T19:00:38.677Z,7.22
2022-11-16T19:03:43.076Z,7.19
2022-11-16T19:06:47.155Z,7.26
2022-11-16T19:09:51.802Z,7.11
2022-11-16T19:12:56.087Z,7.07
2022-11-16T19:16:00.269Z,7.20
2022-11-16T19:19:04.951Z,7.07
2022-11-16T19:22:09.113Z,7.02
2022-11-16T19:25:13.497Z,6.98
2022-11-16T19:28:17.549Z,7.00
2022-11-16T19:31:24.733Z,6.94
2022-11-16T19:34:33.154Z,7.01
2022-11-16T19:37:38.885Z,7.07
2022-11-16T19:40:43.440Z,6.96
2022-11-16T19:43:48.412Z,6.83
2022-11-16T19:46:54.384Z,6.81
2022-11-16T19:49:58.127Z,6.82
2022-11-16T19:53:02.417Z,6.74
2022-11-16T19:56:07.364Z,6.71
2022-11-16T19:59:11.698Z,6.75
2022-11-16T20:02:16.023Z,6.85
2022-11-16T20:05:20.226Z,6.76
2022-11-16T20:08:24.425Z,6.78
2022-11-16T20:11:31.178Z,6.74
2022-11-16T20:14:35.117Z,6.69
2022-11-16T20:17:39.131Z,6.66
2022-11-16T20:20:43.449Z,6.66
2022-11-16T20:23:47.578Z,6.49
2022-11-16T20:26:51.699Z,6.64
2022-11-16T20:29:55.621Z,6.53
2022-11-16T20:32:59.268Z,6.54
2022-11-16T20:36:05.490Z,6.55
2022-11-16T20:39:13.981Z,6.53
2022-11-16T20:42:19.441Z,6.53
2022-11-16T20:45:23.762Z,6.63
2022-11-16T20:48:27.567Z,6.57
2022-11-16T20:51:31.250Z,6.51
2022-11-16T20:54:35.175Z,6.48
2022-11-16T20:57:39.427Z,6.55
2022-11-16T21:00:43.520Z,6.48
2022-11-16T21:03:47.593Z,6.46
2022-11-16T21:06:51.811Z,6.37
2022-11-16T21:10:22.158Z,6.39
2022-11-16T21:13:44.788Z,6.47
2022-11-16T21:16:49.217Z,6.39
2022-11-16T21:20:20.232Z,6.37
2022-11-16T21:23:17.208Z,6.43
2022-11-16T21:26:28.327Z,6.43
2022-11-16T21:29:32.339Z,6.45
2022-11-16T21:32:36.323Z,6.44
2022-11-16T21:35:40.323Z,6.49
2022-11-16T21:38:44.412Z,6.56
2022-11-16T21:41:48.458Z,6.48
2022-11-16T21:44:52.264Z,6.53
2022-11-16T21:47:56.378Z,6.48
2022-11-16T21:51:05.391Z,6.58
2022-11-16T21:54:09.593Z,6.40
2022-11-16T21:57:17.443Z,6.45
2022-11-16T22:00:21.556Z,6.36
2022-11-16T22:03:30.498Z,6.49
2022-11-16T22:06:53.018Z,6.37
2022-11-16T22:09:57.317Z,6.37
2022-11-16T22:13:01.561Z,6.48
2022-11-16T22:16:17.198Z,6.38
2022-11-16T22:19:21.193Z,6.41
2022-11-16T22:22:25.125Z,6.38
2022-11-16T22:25:29.040Z,6.33
2022-11-16T22:28:34.174Z,6.44
2022-11-16T22:31:38.103Z,6.33
2022-11-16T22:34:42.023Z,6.34
2022-11-16T22:37:45.893Z,6.15
2022-11-16T22:40:54.766Z,6.33
2022-11-16T22:43:58.844Z,6.40
2022-11-16T22:47:03.319Z,6.38
2022-11-16T22:50:07.789Z,6.33
2022-11-16T22:53:12.184Z,6.38
2022-11-16T22:56:16.327Z,6.35
2022-11-16T22:59:20.326Z,6.30
2022-11-16T23:02:24.162Z,6.30
2022-11-16T23:05:28.595Z,6.34
2022-11-16T23:08:33.784Z,6.34
2022-11-16T23:11:56.602Z,6.32
2022-11-16T23:15:19.449Z,6.26
2022-11-16T23:18:23.569Z,6.11
2022-11-16T23:21:46.494Z,6.13
2022-11-16T23:25:09.229Z,6.21
2022-11-16T23:28:14.878Z,6.15
2022-11-16T23:31:19.026Z,6.13
2022-11-16T23:34:23.062Z,6.10
2022-11-16T23:37:26.967Z,6.03
2022-11-16T23:40:33.832Z,5.97
2022-11-16T23:43:56.638Z,5.92
2022-11-16T23:47:00.593Z,5.83
2022-11-16T23:50:05.291Z,5.91
2022-11-16T23:53:10.440Z,5.85
2022-11-16T23:56:14.444Z,5.80
2022-11-16T23:59:18.455Z,5.80
